Tussy, Oklahoma
Current Conditions -  °F | °C
As of 9:55 AM on Saturday 25 Oct 2014 (Local Time) from KPVJ Reporting Station
Clear Clear  
Wind Chill: 67°   Ceiling: Unl
Heat Index: 67°   Visibility: 10mi
Dew Point: 61°   Wind: 5mph
Humidity: 82%   Direction: 170°S
Pressure: 30.11"   Gusts: NA
Location:  34.5°N, 97.54°W
Report Text: KPVJ 251455Z AUTO 17004KT 10SM CLR 19/16 A3011 RMK AO2 T01920161
Loading
Personal Weather Stations






























Interactive Weather Map
Tropical Storm Tracking
New forecast layout! Learn more

10-Day Weather Forecast

Advertisements
Track Severe Weather on mobile